sensor_id;sensor_type;location;lat;lon;timestamp;P1;durP1;ratioP1;P2;durP2;ratioP2
43429;SDS011;29028;43.234;27.896;2022-12-17T14:35:50;11.77;;;6.82;;
43429;SDS011;29028;43.234;27.896;2022-12-17T14:36:21;10.95;;;7.85;;
43429;SDS011;29028;43.234;27.896;2022-12-17T14:36:42;12.10;;;8.00;;
43429;SDS011;29028;43.234;27.896;2022-12-17T14:37:03;10.55;;;7.47;;
43429;SDS011;29028;43.234;27.896;2022-12-17T14:37:25;11.35;;;7.50;;
43429;SDS011;29028;43.234;27.896;2022-12-17T14:37:47;13.05;;;7.85;;
43429;SDS011;29028;43.234;27.896;2022-12-17T14:38:15;11.93;;;7.75;;
43429;SDS011;29028;43.234;27.896;2022-12-17T14:38:38;12.05;;;7.70;;
43429;SDS011;29028;43.234;27.896;2022-12-17T14:38:59;10.05;;;7.55;;
43429;SDS011;29028;43.234;27.896;2022-12-17T14:39:22;12.23;;;7.97;;
43429;SDS011;29028;43.234;27.896;2022-12-17T14:39:45;13.43;;;8.00;;
43429;SDS011;29028;43.234;27.896;2022-12-17T14:40:09;11.18;;;7.88;;
43429;SDS011;29028;43.234;27.896;2022-12-17T14:40:33;13.27;;;8.02;;
43429;SDS011;29028;43.234;27.896;2022-12-17T14:40:59;13.93;;;8.30;;
43429;SDS011;29028;43.234;27.896;2022-12-17T14:41:42;12.23;;;7.75;;
43429;SDS011;29028;43.234;27.896;2022-12-17T14:42:21;11.93;;;7.93;;
43429;SDS011;29028;43.234;27.896;2022-12-17T14:42:44;14.40;;;7.85;;
43429;SDS011;29028;43.234;27.896;2022-12-17T14:43:05;12.68;;;7.63;;
43429;SDS011;29028;43.234;27.896;2022-12-17T14:43:26;11.00;;;7.75;;
43429;SDS011;29028;43.234;27.896;2022-12-17T14:43:53;17.27;;;9.05;;
43429;SDS011;29028;43.234;27.896;2022-12-17T14:44:16;17.27;;;8.35;;
43429;SDS011;29028;43.234;27.896;2022-12-17T14:44:41;13.93;;;8.00;;
43429;SDS011;29028;43.234;27.896;2022-12-17T14:45:20;14.00;;;8.32;;
43429;SDS011;29028;43.234;27.896;2022-12-17T14:45:47;15.82;;;8.30;;
43429;SDS011;29028;43.234;27.896;2022-12-17T14:46:24;13.85;;;8.70;;
43429;SDS011;29028;43.234;27.896;2022-12-17T14:46:47;14.13;;;8.73;;
43429;SDS011;29028;43.234;27.896;2022-12-17T14:47:11;15.65;;;8.40;;
43429;SDS011;29028;43.234;27.896;2022-12-17T14:47:37;14.18;;;8.07;;
43429;SDS011;29028;43.234;27.896;2022-12-17T14:47:59;12.88;;;8.15;;
43429;SDS011;29028;43.234;27.896;2022-12-17T14:48:23;13.85;;;8.48;;
43429;SDS011;29028;43.234;27.896;2022-12-17T14:49:11;14.65;;;8.77;;
43429;SDS011;29028;43.234;27.896;2022-12-17T14:49:38;13.65;;;8.77;;
43429;SDS011;29028;43.234;27.896;2022-12-17T14:50:23;15.98;;;9.05;;
43429;SDS011;29028;43.234;27.896;2022-12-17T14:50:54;14.07;;;9.02;;
43429;SDS011;29028;43.234;27.896;2022-12-17T14:51:19;16.38;;;9.15;;
43429;SDS011;29028;43.234;27.896;2022-12-17T14:51:42;14.85;;;9.68;;
43429;SDS011;29028;43.234;27.896;2022-12-17T14:52:10;15.70;;;9.70;;
43429;SDS011;29028;43.234;27.896;2022-12-17T14:52:37;15.38;;;9.43;;
43429;SDS011;29028;43.234;27.896;2022-12-17T14:53:00;13.52;;;8.95;;
43429;SDS011;29028;43.234;27.896;2022-12-17T14:53:24;14.82;;;9.07;;
43429;SDS011;29028;43.234;27.896;2022-12-17T14:53:46;12.60;;;9.20;;
43429;SDS011;29028;43.234;27.896;2022-12-17T14:54:18;14.13;;;9.20;;
43429;SDS011;29028;43.234;27.896;2022-12-17T14:54:44;15.25;;;9.63;;
43429;SDS011;29028;43.234;27.896;2022-12-17T14:55:26;13.48;;;9.85;;
43429;SDS011;29028;43.234;27.896;2022-12-17T14:55:51;17.02;;;13.05;;
43429;SDS011;29028;43.234;27.896;2022-12-17T14:56:20;18.25;;;13.20;;
43429;SDS011;29028;43.234;27.896;2022-12-17T14:56:42;18.35;;;13.15;;
43429;SDS011;29028;43.234;27.896;2022-12-17T14:57:05;17.65;;;12.05;;
43429;SDS011;29028;43.234;27.896;2022-12-17T14:57:38;13.98;;;9.52;;
43429;SDS011;29028;43.234;27.896;2022-12-17T14:58:07;15.40;;;10.80;;
43429;SDS011;29028;43.234;27.896;2022-12-17T14:58:43;18.05;;;11.55;;
43429;SDS011;29028;43.234;27.896;2022-12-17T14:59:19;12.93;;;10.15;;
43429;SDS011;29028;43.234;27.896;2022-12-17T14:59:42;13.27;;;10.45;;
43429;SDS011;29028;43.234;27.896;2022-12-17T15:00:06;14.15;;;8.70;;
43429;SDS011;29028;43.234;27.896;2022-12-17T15:00:29;13.60;;;9.13;;
43429;SDS011;29028;43.234;27.896;2022-12-17T15:00:51;11.27;;;8.67;;
43429;SDS011;29028;43.234;27.896;2022-12-17T15:01:13;12.63;;;9.23;;
43429;SDS011;29028;43.234;27.896;2022-12-17T15:01:36;13.23;;;8.85;;
43429;SDS011;29028;43.234;27.896;2022-12-17T15:01:58;12.73;;;8.90;;
43429;SDS011;29028;43.234;27.896;2022-12-17T15:02:22;9.77;;;8.77;;
43429;SDS011;29028;43.234;27.896;2022-12-17T15:02:45;10.45;;;8.60;;
43429;SDS011;29028;43.234;27.896;2022-12-17T15:03:15;11.52;;;8.80;;
43429;SDS011;29028;43.234;27.896;2022-12-17T15:03:41;9.88;;;8.55;;
43429;SDS011;29028;43.234;27.896;2022-12-17T15:04:05;9.98;;;8.30;;
43429;SDS011;29028;43.234;27.896;2022-12-17T15:04:29;11.38;;;7.72;;
43429;SDS011;29028;43.234;27.896;2022-12-17T15:04:51;14.18;;;8.15;;
43429;SDS011;29028;43.234;27.896;2022-12-17T15:05:15;12.43;;;8.45;;
43429;SDS011;29028;43.234;27.896;2022-12-17T15:05:36;10.30;;;8.30;;
43429;SDS011;29028;43.234;27.896;2022-12-17T15:06:00;9.88;;;8.27;;
43429;SDS011;29028;43.234;27.896;2022-12-17T15:06:23;11.10;;;8.15;;
43429;SDS011;29028;43.234;27.896;2022-12-17T15:06:49;13.35;;;9.50;;
43429;SDS011;29028;43.234;27.896;2022-12-17T15:07:39;11.00;;;9.88;;
43429;SDS011;29028;43.234;27.896;2022-12-17T15:08:01;11.90;;;9.80;;
43429;SDS011;29028;43.234;27.896;2022-12-17T15:08:23;12.35;;;9.20;;
43429;SDS011;29028;43.234;27.896;2022-12-17T15:08:45;11.98;;;9.90;;
43429;SDS011;29028;43.234;27.896;2022-12-17T15:09:08;12.80;;;10.13;;
43429;SDS011;29028;43.234;27.896;2022-12-17T15:09:34;12.75;;;9.40;;
43429;SDS011;29028;43.234;27.896;2022-12-17T15:09:55;10.82;;;9.02;;
43429;SDS011;29028;43.234;27.896;2022-12-17T15:10:19;11.77;;;8.98;;
43429;SDS011;29028;43.234;27.896;2022-12-17T15:10:41;10.70;;;8.52;;
43429;SDS011;29028;43.234;27.896;2022-12-17T15:11:02;12.55;;;8.88;;
43429;SDS011;29028;43.234;27.896;2022-12-17T15:11:23;12.80;;;8.73;;
43429;SDS011;29028;43.234;27.896;2022-12-17T15:11:44;11.82;;;8.82;;
43429;SDS011;29028;43.234;27.896;2022-12-17T15:12:05;12.60;;;9.18;;
43429;SDS011;29028;43.234;27.896;2022-12-17T15:12:26;13.63;;;8.75;;
43429;SDS011;29028;43.234;27.896;2022-12-17T15:12:47;12.50;;;8.50;;
43429;SDS011;29028;43.234;27.896;2022-12-17T15:13:10;10.95;;;8.75;;
43429;SDS011;29028;43.234;27.896;2022-12-17T15:13:31;10.73;;;9.00;;
43429;SDS011;29028;43.234;27.896;2022-12-17T15:13:52;12.00;;;9.32;;
43429;SDS011;29028;43.234;27.896;2022-12-17T15:14:14;13.20;;;8.75;;
43429;SDS011;29028;43.234;27.896;2022-12-17T15:14:35;11.57;;;8.33;;
43429;SDS011;29028;43.234;27.896;2022-12-17T15:14:56;13.55;;;8.52;;
43429;SDS011;29028;43.234;27.896;2022-12-17T15:15:16;11.30;;;8.60;;
43429;SDS011;29028;43.234;27.896;2022-12-17T15:15:40;12.25;;;8.95;;
43429;SDS011;29028;43.234;27.896;2022-12-17T15:16:00;13.60;;;9.30;;
43429;SDS011;29028;43.234;27.896;2022-12-17T15:16:21;13.85;;;10.30;;
43429;SDS011;29028;43.234;27.896;2022-12-17T15:16:42;14.70;;;11.20;;
43429;SDS011;29028;43.234;27.896;2022-12-17T15:17:05;14.82;;;10.63;;
43429;SDS011;29028;43.234;27.896;2022-12-17T15:17:25;17.52;;;10.63;;
43429;SDS011;29028;43.234;27.896;2022-12-17T15:17:46;18.27;;;11.10;;
43429;SDS011;29028;43.234;27.896;2022-12-17T15:18:07;15.83;;;10.97;;
43429;SDS011;29028;43.234;27.896;2022-12-17T15:18:32;13.68;;;10.35;;
43429;SDS011;29028;43.234;27.896;2022-12-17T15:18:52;16.33;;;10.50;;
43429;SDS011;29028;43.234;27.896;2022-12-17T15:19:13;16.73;;;10.63;;
43429;SDS011;29028;43.234;27.896;2022-12-17T15:19:35;12.90;;;10.27;;
43429;SDS011;29028;43.234;27.896;2022-12-17T15:19:56;15.90;;;10.73;;
43429;SDS011;29028;43.234;27.896;2022-12-17T15:20:18;15.60;;;10.93;;
43429;SDS011;29028;43.234;27.896;2022-12-17T15:20:40;16.23;;;10.60;;
43429;SDS011;29028;43.234;27.896;2022-12-17T15:21:02;16.20;;;10.77;;
43429;SDS011;29028;43.234;27.896;2022-12-17T15:21:23;14.43;;;10.43;;
43429;SDS011;29028;43.234;27.896;2022-12-17T15:21:45;17.58;;;10.70;;
43429;SDS011;29028;43.234;27.896;2022-12-17T15:22:08;15.60;;;10.57;;
43429;SDS011;29028;43.234;27.896;2022-12-17T15:22:35;17.30;;;10.68;;
43429;SDS011;29028;43.234;27.896;2022-12-17T15:22:58;18.42;;;10.90;;
43429;SDS011;29028;43.234;27.896;2022-12-17T15:23:21;19.17;;;11.15;;
43429;SDS011;29028;43.234;27.896;2022-12-17T15:23:43;17.33;;;11.57;;
43429;SDS011;29028;43.234;27.896;2022-12-17T15:24:08;19.05;;;11.45;;
43429;SDS011;29028;43.234;27.896;2022-12-17T15:24:31;18.15;;;11.95;;
43429;SDS011;29028;43.234;27.896;2022-12-17T15:24:52;16.15;;;11.82;;
43429;SDS011;29028;43.234;27.896;2022-12-17T15:25:14;19.20;;;12.50;;
43429;SDS011;29028;43.234;27.896;2022-12-17T15:25:36;19.65;;;12.93;;
43429;SDS011;29028;43.234;27.896;2022-12-17T15:25:58;22.13;;;12.82;;
43429;SDS011;29028;43.234;27.896;2022-12-17T15:26:19;21.67;;;12.27;;
43429;SDS011;29028;43.234;27.896;2022-12-17T15:26:40;19.48;;;12.55;;
43429;SDS011;29028;43.234;27.896;2022-12-17T15:27:01;21.90;;;12.70;;
43429;SDS011;29028;43.234;27.896;2022-12-17T15:27:22;25.58;;;12.82;;
43429;SDS011;29028;43.234;27.896;2022-12-17T15:27:43;18.70;;;12.15;;
43429;SDS011;29028;43.234;27.896;2022-12-17T15:28:04;17.92;;;12.38;;
43429;SDS011;29028;43.234;27.896;2022-12-17T15:28:26;19.98;;;13.30;;
43429;SDS011;29028;43.234;27.896;2022-12-17T15:28:47;18.00;;;13.27;;
43429;SDS011;29028;43.234;27.896;2022-12-17T15:29:08;17.20;;;12.93;;
43429;SDS011;29028;43.234;27.896;2022-12-17T15:29:30;19.73;;;12.93;;
43429;SDS011;29028;43.234;27.896;2022-12-17T15:29:51;19.50;;;13.00;;
43429;SDS011;29028;43.234;27.896;2022-12-17T15:30:12;19.98;;;12.85;;
43429;SDS011;29028;43.234;27.896;2022-12-17T15:30:33;16.85;;;12.60;;
43429;SDS011;29028;43.234;27.896;2022-12-17T15:30:55;14.93;;;12.88;;
43429;SDS011;29028;43.234;27.896;2022-12-17T15:31:16;17.63;;;12.93;;
43429;SDS011;29028;43.234;27.896;2022-12-17T15:31:37;18.80;;;12.57;;
43429;SDS011;29028;43.234;27.896;2022-12-17T15:31:57;16.35;;;12.45;;
43429;SDS011;29028;43.234;27.896;2022-12-17T15:32:20;17.75;;;12.65;;
43429;SDS011;29028;43.234;27.896;2022-12-17T15:32:42;16.13;;;12.15;;
43429;SDS011;29028;43.234;27.896;2022-12-17T15:33:06;16.10;;;11.75;;
43429;SDS011;29028;43.234;27.896;2022-12-17T15:33:28;14.35;;;11.93;;
43429;SDS011;29028;43.234;27.896;2022-12-17T15:33:49;16.57;;;11.67;;
43429;SDS011;29028;43.234;27.896;2022-12-17T15:34:10;14.65;;;11.52;;
43429;SDS011;29028;43.234;27.896;2022-12-17T15:34:31;17.08;;;12.02;;
43429;SDS011;29028;43.234;27.896;2022-12-17T15:34:52;17.25;;;11.68;;
43429;SDS011;29028;43.234;27.896;2022-12-17T15:35:13;14.52;;;11.32;;
43429;SDS011;29028;43.234;27.896;2022-12-17T15:35:34;15.40;;;11.15;;
43429;SDS011;29028;43.234;27.896;2022-12-17T15:35:57;13.98;;;11.25;;
43429;SDS011;29028;43.234;27.896;2022-12-17T15:36:18;11.97;;;10.40;;
43429;SDS011;29028;43.234;27.896;2022-12-17T15:36:39;12.07;;;10.45;;
43429;SDS011;29028;43.234;27.896;2022-12-17T15:37:00;13.05;;;10.57;;
43429;SDS011;29028;43.234;27.896;2022-12-17T15:37:21;14.35;;;10.90;;
43429;SDS011;29028;43.234;27.896;2022-12-17T15:37:42;14.50;;;11.05;;
43429;SDS011;29028;43.234;27.896;2022-12-17T15:38:05;14.57;;;10.88;;
43429;SDS011;29028;43.234;27.896;2022-12-17T15:38:27;13.55;;;10.52;;
43429;SDS011;29028;43.234;27.896;2022-12-17T15:38:47;14.63;;;11.00;;
43429;SDS011;29028;43.234;27.896;2022-12-17T15:39:10;13.63;;;10.77;;
43429;SDS011;29028;43.234;27.896;2022-12-17T15:39:30;14.48;;;10.80;;
43429;SDS011;29028;43.234;27.896;2022-12-17T15:39:51;13.38;;;11.02;;
43429;SDS011;29028;43.234;27.896;2022-12-17T15:40:12;12.20;;;10.70;;
43429;SDS011;29028;43.234;27.896;2022-12-17T15:40:35;13.00;;;10.50;;
43429;SDS011;29028;43.234;27.896;2022-12-17T15:40:58;13.00;;;10.55;;
43429;SDS011;29028;43.234;27.896;2022-12-17T15:41:19;14.77;;;10.90;;
43429;SDS011;29028;43.234;27.896;2022-12-17T15:41:58;13.07;;;11.27;;
43429;SDS011;29028;43.234;27.896;2022-12-17T15:42:37;13.48;;;11.02;;
43429;SDS011;29028;43.234;27.896;2022-12-17T15:43:16;14.75;;;11.05;;
43429;SDS011;29028;43.234;27.896;2022-12-17T15:43:38;16.73;;;11.15;;
43429;SDS011;29028;43.234;27.896;2022-12-17T15:43:59;13.85;;;11.02;;
43429;SDS011;29028;43.234;27.896;2022-12-17T15:44:20;15.50;;;10.70;;
43429;SDS011;29028;43.234;27.896;2022-12-17T15:44:41;14.93;;;10.63;;
43429;SDS011;29028;43.234;27.896;2022-12-17T15:45:02;14.37;;;10.80;;
43429;SDS011;29028;43.234;27.896;2022-12-17T15:45:23;15.88;;;10.88;;
43429;SDS011;29028;43.234;27.896;2022-12-17T15:45:46;13.60;;;10.73;;
43429;SDS011;29028;43.234;27.896;2022-12-17T15:46:08;14.07;;;10.57;;
43429;SDS011;29028;43.234;27.896;2022-12-17T15:46:29;18.20;;;10.88;;
43429;SDS011;29028;43.234;27.896;2022-12-17T15:46:51;19.23;;;10.35;;
43429;SDS011;29028;43.234;27.896;2022-12-17T15:47:11;14.60;;;10.45;;
43429;SDS011;29028;43.234;27.896;2022-12-17T15:47:32;15.77;;;10.50;;
43429;SDS011;29028;43.234;27.896;2022-12-17T15:47:53;14.43;;;10.48;;
43429;SDS011;29028;43.234;27.896;2022-12-17T15:48:15;16.85;;;11.18;;
43429;SDS011;29028;43.234;27.896;2022-12-17T15:48:37;13.80;;;10.52;;
43429;SDS011;29028;43.234;27.896;2022-12-17T15:48:58;12.43;;;10.40;;
43429;SDS011;29028;43.234;27.896;2022-12-17T15:49:19;13.18;;;10.57;;
43429;SDS011;29028;43.234;27.896;2022-12-17T15:49:41;14.15;;;10.93;;
43429;SDS011;29028;43.234;27.896;2022-12-17T15:50:05;14.48;;;10.52;;
43429;SDS011;29028;43.234;27.896;2022-12-17T15:50:27;14.57;;;10.75;;
43429;SDS011;29028;43.234;27.896;2022-12-17T15:50:48;15.03;;;10.93;;
43429;SDS011;29028;43.234;27.896;2022-12-17T15:51:10;13.25;;;11.05;;
43429;SDS011;29028;43.234;27.896;2022-12-17T15:51:33;16.60;;;10.75;;
43429;SDS011;29028;43.234;27.896;2022-12-17T15:51:54;13.30;;;10.95;;
43429;SDS011;29028;43.234;27.896;2022-12-17T15:52:15;14.13;;;10.93;;
43429;SDS011;29028;43.234;27.896;2022-12-17T15:52:36;13.45;;;10.63;;
43429;SDS011;29028;43.234;27.896;2022-12-17T15:52:57;13.20;;;10.43;;
43429;SDS011;29028;43.234;27.896;2022-12-17T15:53:19;14.23;;;10.95;;
43429;SDS011;29028;43.234;27.896;2022-12-17T15:53:41;16.27;;;11.20;;
43429;SDS011;29028;43.234;27.896;2022-12-17T15:54:02;15.00;;;11.75;;
43429;SDS011;29028;43.234;27.896;2022-12-17T15:54:23;14.23;;;11.85;;
43429;SDS011;29028;43.234;27.896;2022-12-17T15:54:44;13.88;;;11.13;;
43429;SDS011;29028;43.234;27.896;2022-12-17T15:55:06;15.93;;;11.02;;
43429;SDS011;29028;43.234;27.896;2022-12-17T15:55:29;16.25;;;11.40;;
43429;SDS011;29028;43.234;27.896;2022-12-17T15:55:57;16.73;;;11.75;;
43429;SDS011;29028;43.234;27.896;2022-12-17T15:56:20;15.10;;;11.98;;
43429;SDS011;29028;43.234;27.896;2022-12-17T15:56:43;16.90;;;11.70;;
43429;SDS011;29028;43.234;27.896;2022-12-17T15:57:12;17.70;;;11.63;;
43429;SDS011;29028;43.234;27.896;2022-12-17T15:57:33;18.13;;;12.02;;
43429;SDS011;29028;43.234;27.896;2022-12-17T15:57:55;14.38;;;11.77;;
43429;SDS011;29028;43.234;27.896;2022-12-17T15:58:15;14.70;;;11.48;;
43429;SDS011;29028;43.234;27.896;2022-12-17T15:58:38;14.35;;;11.20;;
43429;SDS011;29028;43.234;27.896;2022-12-17T15:58:59;13.80;;;11.57;;
43429;SDS011;29028;43.234;27.896;2022-12-17T15:59:20;16.30;;;11.80;;
43429;SDS011;29028;43.234;27.896;2022-12-17T15:59:41;14.45;;;11.13;;
43429;SDS011;29028;43.234;27.896;2022-12-17T16:00:03;15.55;;;11.85;;
43429;SDS011;29028;43.234;27.896;2022-12-17T16:00:26;15.50;;;11.32;;
43429;SDS011;29028;43.234;27.896;2022-12-17T16:00:46;13.90;;;11.70;;
43429;SDS011;29028;43.234;27.896;2022-12-17T16:01:07;13.73;;;11.57;;
43429;SDS011;29028;43.234;27.896;2022-12-17T16:01:28;14.80;;;11.32;;
43429;SDS011;29028;43.234;27.896;2022-12-17T16:01:50;13.98;;;11.23;;
43429;SDS011;29028;43.234;27.896;2022-12-17T16:02:11;15.85;;;11.65;;
43429;SDS011;29028;43.234;27.896;2022-12-17T16:02:32;15.43;;;11.52;;
43429;SDS011;29028;43.234;27.896;2022-12-17T16:02:52;16.03;;;11.37;;
43429;SDS011;29028;43.234;27.896;2022-12-17T16:03:14;15.90;;;11.52;;
43429;SDS011;29028;43.234;27.896;2022-12-17T16:03:35;15.38;;;10.93;;
43429;SDS011;29028;43.234;27.896;2022-12-17T16:03:56;13.88;;;11.18;;
43429;SDS011;29028;43.234;27.896;2022-12-17T16:04:17;15.30;;;11.00;;
43429;SDS011;29028;43.234;27.896;2022-12-17T16:04:38;15.63;;;11.20;;
43429;SDS011;29028;43.234;27.896;2022-12-17T16:05:00;15.95;;;11.65;;
43429;SDS011;29028;43.234;27.896;2022-12-17T16:05:21;15.55;;;11.75;;
43429;SDS011;29028;43.234;27.896;2022-12-17T16:05:45;12.90;;;10.82;;
43429;SDS011;29028;43.234;27.896;2022-12-17T16:06:05;16.20;;;11.00;;
43429;SDS011;29028;43.234;27.896;2022-12-17T16:06:27;15.38;;;11.73;;
43429;SDS011;29028;43.234;27.896;2022-12-17T16:06:48;14.97;;;11.30;;
43429;SDS011;29028;43.234;27.896;2022-12-17T16:07:09;14.18;;;10.65;;
43429;SDS011;29028;43.234;27.896;2022-12-17T16:07:30;14.05;;;10.80;;
43429;SDS011;29028;43.234;27.896;2022-12-17T16:07:51;15.05;;;11.13;;
43429;SDS011;29028;43.234;27.896;2022-12-17T16:08:12;14.88;;;11.02;;
43429;SDS011;29028;43.234;27.896;2022-12-17T16:08:37;14.30;;;10.98;;
43429;SDS011;29028;43.234;27.896;2022-12-17T16:08:58;14.27;;;11.05;;
43429;SDS011;29028;43.234;27.896;2022-12-17T16:09:20;14.77;;;11.27;;
43429;SDS011;29028;43.234;27.896;2022-12-17T16:09:46;15.30;;;11.07;;
43429;SDS011;29028;43.234;27.896;2022-12-17T16:10:07;15.63;;;11.20;;
43429;SDS011;29028;43.234;27.896;2022-12-17T16:10:28;16.08;;;11.48;;
43429;SDS011;29028;43.234;27.896;2022-12-17T16:10:50;13.20;;;11.48;;
43429;SDS011;29028;43.234;27.896;2022-12-17T16:11:12;14.98;;;11.35;;
43429;SDS011;29028;43.234;27.896;2022-12-17T16:11:33;16.98;;;11.20;;
43429;SDS011;29028;43.234;27.896;2022-12-17T16:11:54;20.10;;;11.27;;
43429;SDS011;29028;43.234;27.896;2022-12-17T16:12:16;16.45;;;10.90;;
43429;SDS011;29028;43.234;27.896;2022-12-17T16:12:37;15.40;;;10.70;;
43429;SDS011;29028;43.234;27.896;2022-12-17T16:12:58;15.27;;;10.75;;
43429;SDS011;29028;43.234;27.896;2022-12-17T16:13:19;17.02;;;11.00;;
43429;SDS011;29028;43.234;27.896;2022-12-17T16:13:41;15.38;;;11.25;;
43429;SDS011;29028;43.234;27.896;2022-12-17T16:14:01;15.57;;;11.05;;
43429;SDS011;29028;43.234;27.896;2022-12-17T16:14:22;13.27;;;10.80;;
43429;SDS011;29028;43.234;27.896;2022-12-17T16:14:43;12.77;;;10.45;;
43429;SDS011;29028;43.234;27.896;2022-12-17T16:15:06;13.70;;;10.88;;
43429;SDS011;29028;43.234;27.896;2022-12-17T16:15:27;16.25;;;12.18;;
43429;SDS011;29028;43.234;27.896;2022-12-17T16:15:54;20.63;;;16.35;;
43429;SDS011;29028;43.234;27.896;2022-12-17T16:16:15;20.20;;;15.68;;
43429;SDS011;29028;43.234;27.896;2022-12-17T16:16:37;18.70;;;14.30;;
43429;SDS011;29028;43.234;27.896;2022-12-17T16:16:57;18.42;;;13.73;;
43429;SDS011;29028;43.234;27.896;2022-12-17T16:17:18;21.40;;;16.10;;
43429;SDS011;29028;43.234;27.896;2022-12-17T16:17:40;20.73;;;16.08;;
43429;SDS011;29028;43.234;27.896;2022-12-17T16:18:01;24.48;;;16.90;;
43429;SDS011;29028;43.234;27.896;2022-12-17T16:18:22;22.23;;;15.80;;
43429;SDS011;29028;43.234;27.896;2022-12-17T16:18:43;17.67;;;12.52;;
43429;SDS011;29028;43.234;27.896;2022-12-17T16:19:05;16.90;;;12.07;;
43429;SDS011;29028;43.234;27.896;2022-12-17T16:19:26;18.05;;;13.13;;
43429;SDS011;29028;43.234;27.896;2022-12-17T16:19:46;20.35;;;15.27;;
43429;SDS011;29028;43.234;27.896;2022-12-17T16:20:08;19.77;;;14.60;;
43429;SDS011;29028;43.234;27.896;2022-12-17T16:20:30;17.92;;;13.45;;
43429;SDS011;29028;43.234;27.896;2022-12-17T16:20:51;21.30;;;16.00;;
43429;SDS011;29028;43.234;27.896;2022-12-17T16:21:12;22.33;;;16.13;;
43429;SDS011;29028;43.234;27.896;2022-12-17T16:21:34;21.27;;;16.58;;
43429;SDS011;29028;43.234;27.896;2022-12-17T16:21:54;25.33;;;17.65;;
43429;SDS011;29028;43.234;27.896;2022-12-17T16:22:15;28.73;;;19.27;;
43429;SDS011;29028;43.234;27.896;2022-12-17T16:22:36;32.88;;;22.33;;
43429;SDS011;29028;43.234;27.896;2022-12-17T16:22:58;30.23;;;21.27;;
43429;SDS011;29028;43.234;27.896;2022-12-17T16:23:20;25.75;;;18.17;;
43429;SDS011;29028;43.234;27.896;2022-12-17T16:23:42;25.25;;;18.40;;
43429;SDS011;29028;43.234;27.896;2022-12-17T16:24:04;24.67;;;17.85;;
43429;SDS011;29028;43.234;27.896;2022-12-17T16:24:25;24.42;;;18.17;;
43429;SDS011;29028;43.234;27.896;2022-12-17T16:24:46;28.70;;;18.90;;
43429;SDS011;29028;43.234;27.896;2022-12-17T16:25:07;27.45;;;19.65;;
43429;SDS011;29028;43.234;27.896;2022-12-17T16:25:29;27.88;;;21.73;;
43429;SDS011;29028;43.234;27.896;2022-12-17T16:25:54;27.35;;;21.17;;
43429;SDS011;29028;43.234;27.896;2022-12-17T16:26:16;26.17;;;20.48;;
43429;SDS011;29028;43.234;27.896;2022-12-17T16:26:37;26.67;;;21.10;;
43429;SDS011;29028;43.234;27.896;2022-12-17T16:26:58;28.13;;;21.50;;
43429;SDS011;29028;43.234;27.896;2022-12-17T16:27:20;29.95;;;23.42;;
43429;SDS011;29028;43.234;27.896;2022-12-17T16:27:40;28.00;;;23.73;;
43429;SDS011;29028;43.234;27.896;2022-12-17T16:28:02;23.80;;;19.90;;
43429;SDS011;29028;43.234;27.896;2022-12-17T16:28:24;24.35;;;19.83;;
43429;SDS011;29028;43.234;27.896;2022-12-17T16:28:45;20.63;;;17.23;;
43429;SDS011;29028;43.234;27.896;2022-12-17T16:29:05;22.27;;;18.58;;
43429;SDS011;29028;43.234;27.896;2022-12-17T16:29:26;28.47;;;21.07;;
43429;SDS011;29028;43.234;27.896;2022-12-17T16:29:48;26.15;;;21.77;;
43429;SDS011;29028;43.234;27.896;2022-12-17T16:30:09;24.60;;;19.73;;
43429;SDS011;29028;43.234;27.896;2022-12-17T16:30:31;23.52;;;19.20;;
43429;SDS011;29028;43.234;27.896;2022-12-17T16:30:56;23.58;;;19.40;;
43429;SDS011;29028;43.234;27.896;2022-12-17T16:31:20;22.23;;;17.92;;
43429;SDS011;29028;43.234;27.896;2022-12-17T16:31:41;25.73;;;20.65;;
43429;SDS011;29028;43.234;27.896;2022-12-17T16:32:05;21.13;;;17.40;;
43429;SDS011;29028;43.234;27.896;2022-12-17T16:32:26;18.77;;;15.40;;
43429;SDS011;29028;43.234;27.896;2022-12-17T16:32:46;17.08;;;14.05;;
43429;SDS011;29028;43.234;27.896;2022-12-17T16:33:08;18.67;;;15.25;;
43429;SDS011;29028;43.234;27.896;2022-12-17T16:33:30;20.45;;;17.33;;
43429;SDS011;29028;43.234;27.896;2022-12-17T16:33:51;26.88;;;18.33;;
43429;SDS011;29028;43.234;27.896;2022-12-17T16:34:12;28.17;;;20.98;;
43429;SDS011;29028;43.234;27.896;2022-12-17T16:34:34;37.55;;;29.88;;
43429;SDS011;29028;43.234;27.896;2022-12-17T16:34:55;40.27;;;35.73;;
43429;SDS011;29028;43.234;27.896;2022-12-17T16:35:16;34.88;;;30.95;;
43429;SDS011;29028;43.234;27.896;2022-12-17T16:35:38;36.42;;;30.02;;
43429;SDS011;29028;43.234;27.896;2022-12-17T16:35:59;36.13;;;29.77;;
43429;SDS011;29028;43.234;27.896;2022-12-17T16:36:20;39.40;;;32.35;;
43429;SDS011;29028;43.234;27.896;2022-12-17T16:36:41;31.42;;;27.45;;
43429;SDS011;29028;43.234;27.896;2022-12-17T16:37:03;30.45;;;26.35;;
43429;SDS011;29028;43.234;27.896;2022-12-17T16:37:25;33.13;;;28.60;;
43429;SDS011;29028;43.234;27.896;2022-12-17T16:37:46;27.95;;;24.95;;
43429;SDS011;29028;43.234;27.896;2022-12-17T16:38:08;28.52;;;24.65;;
43429;SDS011;29028;43.234;27.896;2022-12-17T16:38:29;33.78;;;26.92;;
43429;SDS011;29028;43.234;27.896;2022-12-17T16:38:52;33.90;;;26.90;;
43429;SDS011;29028;43.234;27.896;2022-12-17T16:39:14;29.10;;;25.58;;
43429;SDS011;29028;43.234;27.896;2022-12-17T16:39:37;29.45;;;25.02;;
43429;SDS011;29028;43.234;27.896;2022-12-17T16:39:58;29.07;;;21.50;;
43429;SDS011;29028;43.234;27.896;2022-12-17T16:40:19;25.52;;;19.67;;
43429;SDS011;29028;43.234;27.896;2022-12-17T16:40:39;24.13;;;20.50;;
43429;SDS011;29028;43.234;27.896;2022-12-17T16:41:02;21.05;;;17.92;;
43429;SDS011;29028;43.234;27.896;2022-12-17T16:41:23;20.83;;;16.10;;
43429;SDS011;29028;43.234;27.896;2022-12-17T16:41:44;22.70;;;18.00;;
43429;SDS011;29028;43.234;27.896;2022-12-17T16:42:06;22.27;;;18.85;;
43429;SDS011;29028;43.234;27.896;2022-12-17T16:42:27;21.92;;;17.35;;
43429;SDS011;29028;43.234;27.896;2022-12-17T16:42:48;21.10;;;16.80;;
43429;SDS011;29028;43.234;27.896;2022-12-17T16:43:09;20.17;;;15.68;;
43429;SDS011;29028;43.234;27.896;2022-12-17T16:43:31;19.00;;;16.02;;
43429;SDS011;29028;43.234;27.896;2022-12-17T16:43:53;18.77;;;15.23;;
43429;SDS011;29028;43.234;27.896;2022-12-17T16:44:14;21.23;;;16.80;;
43429;SDS011;29028;43.234;27.896;2022-12-17T16:44:36;21.27;;;17.33;;
43429;SDS011;29028;43.234;27.896;2022-12-17T16:44:56;21.38;;;17.10;;
43429;SDS011;29028;43.234;27.896;2022-12-17T16:45:17;20.92;;;16.52;;
43429;SDS011;29028;43.234;27.896;2022-12-17T16:45:45;21.30;;;17.00;;
43429;SDS011;29028;43.234;27.896;2022-12-17T16:46:20;21.05;;;17.42;;
43429;SDS011;29028;43.234;27.896;2022-12-17T16:46:43;23.77;;;19.48;;
43429;SDS011;29028;43.234;27.896;2022-12-17T16:47:06;23.42;;;19.55;;
43429;SDS011;29028;43.234;27.896;2022-12-17T16:47:27;25.05;;;20.10;;
43429;SDS011;29028;43.234;27.896;2022-12-17T16:47:47;25.38;;;20.00;;
43429;SDS011;29028;43.234;27.896;2022-12-17T16:48:09;24.42;;;18.55;;